William E. — WDC3317 — position and weather

sailwx.info

Track history (hours):
 
Tides and Currents Weather Stations Pressure Air Temp Water Temp Dewpoint Dewpoint Depression Visibility Wind Speed Wind Dir Waves Ship Positions

William E.

Owner: Donjon Marine Co., Inc., Hillside, NJ. More information available from US FCC via Universal Licensing System and Coast Guard Vessel Documentation Center.

Last reported at 2017-Nov-15 16:15 UTC. Time now 2017-Nov-24 14:46 UTC.
Position N 41°10' W 072°44'.
Warning: this ship's position is 8 days out of date.

Type: Tug. MMSI: 367005710.

Date/timePositionNaut miles runAvg speedWind from/ knotsBaromVisibWave heightAir tempDewpointWater temp
2017-Nov-15 16:15N 41°10' W 072°44'2 8.4
2017-Nov-15 16:01N 41°11' W 072°42'4 8.5
2017-Nov-15 15:30N 41°12' W 072°36'4 8.5
2017-Nov-15 15:00N 41°13' W 072°31'4 7.8
2017-Nov-15 14:30N 41°14' W 072°26'3 5.4
2017-Nov-15 14:00N 41°15' W 072°22'1 0.1
2017-Nov-15 06:58N 41°15' W 072°22'0 0.0
2017-Nov-15 06:30N 41°15' W 072°22'0 0.0
2017-Nov-15 06:00N 41°15' W 072°22'0 0.0
2017-Nov-15 05:30N 41°15' W 072°22'0 0.0
2017-Nov-15 05:00N 41°15' W 072°22'0 0.0
2017-Nov-15 04:30N 41°15' W 072°22'0 0.0
2017-Nov-15 04:00N 41°15' W 072°22'0 0.0
2017-Nov-15 03:30N 41°15' W 072°22'0 0.0
2017-Nov-15 03:00N 41°15' W 072°22'0 0.0
2017-Nov-15 02:30N 41°15' W 072°22'0 0.0
2017-Nov-15 02:00N 41°15' W 072°22'0 0.0
2017-Nov-15 01:30N 41°15' W 072°22'0 0.0
2017-Nov-15 01:00N 41°15' W 072°22'0 0.0
2017-Nov-15 00:30N 41°15' W 072°22'0 0.0
2017-Nov-15 00:00N 41°15' W 072°22'0 0.0
2017-Nov-14 23:30N 41°15' W 072°22'0 0.0
2017-Nov-14 23:00N 41°15' W 072°22'0 0.0
2017-Nov-14 22:30N 41°15' W 072°22'0 0.0
2017-Nov-14 22:00N 41°15' W 072°22'0 0.0
2017-Nov-14 21:30N 41°15' W 072°22'0 0.0
2017-Nov-14 21:00N 41°15' W 072°22'0 0.0
2017-Nov-14 20:30N 41°15' W 072°22'0 0.0
2017-Nov-14 20:00N 41°15' W 072°22'0 0.0
2017-Nov-14 19:30N 41°15' W 072°22'0 0.0
2017-Nov-14 19:00N 41°15' W 072°22'0 0.0
2017-Nov-14 18:30N 41°15' W 072°22'0 0.1
2017-Nov-14 18:00N 41°15' W 072°22'0 0.1
2017-Nov-14 17:30N 41°15' W 072°22'0 0.0
2017-Nov-14 16:58N 41°15' W 072°22'0 0.0
2017-Nov-14 16:30N 41°15' W 072°22'0 0.1
2017-Nov-14 16:00N 41°15' W 072°22'0 0.0
2017-Nov-14 15:30N 41°15' W 072°22'0 0.0
2017-Nov-14 15:00N 41°15' W 072°22'0 0.0
2017-Nov-14 14:30N 41°15' W 072°22'0 0.0
2017-Nov-14 14:00N 41°15' W 072°22'0 0.0
2017-Nov-14 13:30N 41°15' W 072°22'0 0.0
2017-Nov-14 13:00N 41°15' W 072°22'0 0.0
2017-Nov-14 12:30N 41°15' W 072°22'0 0.0
2017-Nov-14 11:48N 41°15' W 072°22'0 0.0
2017-Nov-14 11:30N 41°15' W 072°22'0 0.0
2017-Nov-14 10:57N 41°15' W 072°22'0 0.0
2017-Nov-14 10:30N 41°15' W 072°22'0 0.0
2017-Nov-14 10:00N 41°15' W 072°22'0 0.0
2017-Nov-14 09:30N 41°15' W 072°22'0 0.0
2017-Nov-14 09:00N 41°15' W 072°22'0 0.0
2017-Nov-14 08:30N 41°15' W 072°22'0 0.0
2017-Nov-14 08:00N 41°15' W 072°22'0 0.0
2017-Nov-14 07:30N 41°15' W 072°22'0 0.0
2017-Nov-14 07:00N 41°15' W 072°22'0 0.0
2017-Nov-14 06:30N 41°15' W 072°22'0 0.0
2017-Nov-14 06:00N 41°15' W 072°22'0 0.0
2017-Nov-14 05:30N 41°15' W 072°22'0 0.0
2017-Nov-14 05:00N 41°15' W 072°22'0 0.0
2017-Nov-14 04:30N 41°15' W 072°22'0 0.0
2017-Nov-14 04:00N 41°15' W 072°22'0 0.0
2017-Nov-14 03:30N 41°15' W 072°22'0 0.0
2017-Nov-14 03:00N 41°15' W 072°22'0 0.0
2017-Nov-14 02:30N 41°15' W 072°22'0 0.0
2017-Nov-14 02:00N 41°15' W 072°22'0 0.0
2017-Nov-14 01:30N 41°15' W 072°22'0 0.0
2017-Nov-14 01:00N 41°15' W 072°22'0 0.0
2017-Nov-14 00:30N 41°15' W 072°22'0 0.0
2017-Nov-14 00:00N 41°15' W 072°22'0 0.0
2017-Nov-13 23:30N 41°15' W 072°22'0 0.0
2017-Nov-13 23:00N 41°15' W 072°22'0 0.0
2017-Nov-13 22:30N 41°15' W 072°22'0 0.0
2017-Nov-13 22:00N 41°15' W 072°22'68 2.4
2017-Nov-12 17:52N 40°50' W 073°46'3 6.0
2017-Nov-12 17:23N 40°48' W 073°48'3 6.8
2017-Nov-12 17:00N 40°48' W 073°51'3 5.8
2017-Nov-12 16:30N 40°47' W 073°55'3 5.9
2017-Nov-12 16:00N 40°45' W 073°58'3 5.3
2017-Nov-12 15:30N 40°43' W 073°58'2 4.6
2017-Nov-12 15:00N 40°41' W 074°01'2 4.6
2017-Nov-12 14:30N 40°40' W 074°03'3 5.0
2017-Nov-12 14:00N 40°39' W 074°06'2 4.3
2017-Nov-12 13:30N 40°39' W 074°09'2 4.1
2017-Nov-12 13:00N 40°41' W 074°08'0 0.0
2017-Nov-12 12:30N 40°41' W 074°08'0 0.5
2017-Nov-12 12:00N 40°42' W 074°08'1 1.2
2017-Nov-12 11:30N 40°42' W 074°09'0 0.0
2017-Nov-12 11:00N 40°42' W 074°09'0 0.0
2017-Nov-12 10:30N 40°42' W 074°09'0 0.0
2017-Nov-12 10:00N 40°42' W 074°09'0 0.0
2017-Nov-12 09:31N 40°42' W 074°09'0 0.0
2017-Nov-12 09:00N 40°42' W 074°09'0 0.0
2017-Nov-12 08:30N 40°42' W 074°09'0 0.0
2017-Nov-12 08:00N 40°42' W 074°09'0 0.0
2017-Nov-12 07:30N 40°42' W 074°09'0 0.0
2017-Nov-12 07:00N 40°42' W 074°09'0 0.0
2017-Nov-12 06:30N 40°42' W 074°09'0 0.0
2017-Nov-12 06:01N 40°42' W 074°09'0 0.0
2017-Nov-12 05:30N 40°42' W 074°09'0 0.0
2017-Nov-12 05:00N 40°42' W 074°09'0 0.0
2017-Nov-12 04:30N 40°42' W 074°09'0 0.0
2017-Nov-12 04:00N 40°42' W 074°09'0 0.0
2017-Nov-12 03:30N 40°42' W 074°09'0 0.0
2017-Nov-12 03:00N 40°42' W 074°09'0 0.0
2017-Nov-12 02:30N 40°42' W 074°09'0 0.0
2017-Nov-12 02:00N 40°42' W 074°09'0 0.0
2017-Nov-12 01:30N 40°42' W 074°09'0 0.0
2017-Nov-12 01:00N 40°42' W 074°09'0 0.0
2017-Nov-12 00:30N 40°42' W 074°09'0 0.0
2017-Nov-12 00:00N 40°42' W 074°09'0 0.0
2017-Nov-11 23:30N 40°42' W 074°09'0 0.0
2017-Nov-11 23:00N 40°42' W 074°09'0 0.0
2017-Nov-11 22:30N 40°42' W 074°09'0 0.0
2017-Nov-11 22:00N 40°42' W 074°09'0 0.0
2017-Nov-11 21:30N 40°42' W 074°09'0 0.0
2017-Nov-11 21:00N 40°42' W 074°09'0 0.0
2017-Nov-11 20:30N 40°42' W 074°09'0 0.0
2017-Nov-11 20:00N 40°42' W 074°09'0 0.0
2017-Nov-11 19:30N 40°42' W 074°09'0 0.0
2017-Nov-11 19:00N 40°42' W 074°09'1 2.4
2017-Nov-11 18:30N 40°41' W 074°09'0 0.1
2017-Nov-11 18:00N 40°41' W 074°09'0 0.0
2017-Nov-11 17:30N 40°41' W 074°09'0 0.0
2017-Nov-11 17:00N 40°41' W 074°09'0 0.0
2017-Nov-11 16:30N 40°41' W 074°09'0 0.0
2017-Nov-11 16:00N 40°41' W 074°09'0 0.0
2017-Nov-11 15:30N 40°41' W 074°09'0 0.0
2017-Nov-11 15:00N 40°41' W 074°09'0 0.0
2017-Nov-11 14:30N 40°41' W 074°09'0 0.0
2017-Nov-11 14:00N 40°41' W 074°09'0 0.0
2017-Nov-11 13:30N 40°41' W 074°09'0 0.1
2017-Nov-11 13:00N 40°41' W 074°09'1 1.7
2017-Nov-11 12:30N 40°42' W 074°08'1 1.1
2017-Nov-11 12:01N 40°42' W 074°09'0 0.0
2017-Nov-11 11:30N 40°42' W 074°09'0 0.0
2017-Nov-11 11:00N 40°42' W 074°09'0 0.0
2017-Nov-11 10:30N 40°42' W 074°09'0 0.0
2017-Nov-11 10:00N 40°42' W 074°09'0 0.0
2017-Nov-11 09:31N 40°42' W 074°09'0 0.0
2017-Nov-11 09:01N 40°42' W 074°09'0 0.0
2017-Nov-11 08:30N 40°42' W 074°09'0 0.0
2017-Nov-11 08:01N 40°42' W 074°09'0 0.0
2017-Nov-11 07:31N 40°42' W 074°09'0 0.0
2017-Nov-11 07:01N 40°42' W 074°09'0 0.0
2017-Nov-11 06:30N 40°42' W 074°09'0 0.0
2017-Nov-11 06:00N 40°42' W 074°09'0 0.0
2017-Nov-11 05:30N 40°42' W 074°09'0 0.0
2017-Nov-11 05:00N 40°42' W 074°09'0 0.0
2017-Nov-11 04:30N 40°42' W 074°09'0 0.0
2017-Nov-11 04:00N 40°42' W 074°09'0 0.0
2017-Nov-11 03:30N 40°42' W 074°09'0 0.0
2017-Nov-11 03:00N 40°42' W 074°09'0 0.0
2017-Nov-11 02:30N 40°42' W 074°09'0 0.0
2017-Nov-11 02:00N 40°42' W 074°09'0 0.0
2017-Nov-11 01:30N 40°42' W 074°09'0 0.0
2017-Nov-11 01:00N 40°42' W 074°09'0 0.0
2017-Nov-11 00:30N 40°42' W 074°09'0 0.0
2017-Nov-11 00:00N 40°42' W 074°09'0 0.0
2017-Nov-10 23:30N 40°42' W 074°09'0 0.0
2017-Nov-10 23:00N 40°42' W 074°09'0 0.0
2017-Nov-10 22:30N 40°42' W 074°09'0 0.0
2017-Nov-10 22:00N 40°42' W 074°09'0 0.0
2017-Nov-10 21:30N 40°42' W 074°09'0 0.0
2017-Nov-10 21:00N 40°42' W 074°09'1 1.8
2017-Nov-10 20:30N 40°41' W 074°08'0 0.1
2017-Nov-10 20:01N 40°41' W 074°08'1 1.9
2017-Nov-10 19:30N 40°42' W 074°09'1 1.2
2017-Nov-10 19:00N 40°42' W 074°08'1 1.7
2017-Nov-10 18:30N 40°41' W 074°09'0 0.0
2017-Nov-10 18:00N 40°41' W 074°09'0 0.0
2017-Nov-10 17:30N 40°41' W 074°09'0 0.1
2017-Nov-10 17:00N 40°41' W 074°09'0 0.2
2017-Nov-10 16:30N 40°41' W 074°09'0 0.1
2017-Nov-10 16:01N 40°41' W 074°09'0 0.0
2017-Nov-10 15:31N 40°41' W 074°09'0 0.0
2017-Nov-10 15:01N 40°41' W 074°09'0 0.0
2017-Nov-10 14:31N 40°41' W 074°09'0 0.0
2017-Nov-10 14:01N 40°41' W 074°09'0 0.1
2017-Nov-10 13:31N 40°41' W 074°09'0 0.1
2017-Nov-10 13:00N 40°41' W 074°09'0 0.0
2017-Nov-10 12:30N 40°41' W 074°09'0 0.0
2017-Nov-10 12:00N 40°41' W 074°09'0 0.0
2017-Nov-10 11:30N 40°41' W 074°09'0 0.0
2017-Nov-10 11:01N 40°41' W 074°09'1 2.4
2017-Nov-10 10:30N 40°42' W 074°09'0 0.0
2017-Nov-10 10:00N 40°42' W 074°09'0 0.0
2017-Nov-10 09:31N 40°42' W 074°09'0 0.0
2017-Nov-10 09:00N 40°42' W 074°09'0 0.0
2017-Nov-10 08:30N 40°42' W 074°09'0 0.0
2017-Nov-10 08:00N 40°42' W 074°09'0 0.0
2017-Nov-10 07:30N 40°42' W 074°09'0 0.0
2017-Nov-10 07:00N 40°42' W 074°09'0 0.0
2017-Nov-10 06:30N 40°42' W 074°09'0 0.0
2017-Nov-10 06:00N 40°42' W 074°09'0 0.0
2017-Nov-10 05:30N 40°42' W 074°09'0 0.0
2017-Nov-10 05:00N 40°42' W 074°09'0 0.0
2017-Nov-10 04:30N 40°42' W 074°09'0 0.0
2017-Nov-10 04:00N 40°42' W 074°09'0 0.0
2017-Nov-10 03:31N 40°42' W 074°09'0 0.0
2017-Nov-10 03:01N 40°42' W 074°09'0 0.0
2017-Nov-10 02:31N 40°42' W 074°09'0 0.0
2017-Nov-10 02:00N 40°42' W 074°09'0 0.0
2017-Nov-10 01:30N 40°42' W 074°09'0 0.0
2017-Nov-10 01:00N 40°42' W 074°09'0 0.0
2017-Nov-10 00:30N 40°42' W 074°09'0 0.0
2017-Nov-10 00:00N 40°42' W 074°09'0 0.0
2017-Nov-09 23:31N 40°42' W 074°09'0 0.0
2017-Nov-09 23:00N 40°42' W 074°09'0 0.0
2017-Nov-09 22:30N 40°42' W 074°09'0 1.0
2017-Nov-09 22:01N 40°42' W 074°09'1 1.9
2017-Nov-09 21:31N 40°41' W 074°09'0 0.2
2017-Nov-09 21:00N 40°41' W 074°09'0 0.0
2017-Nov-09 20:30N 40°41' W 074°09'0 0.3
2017-Nov-09 20:00N 40°41' W 074°09'0 0.2
2017-Nov-09 19:30N 40°41' W 074°09'0 0.0
2017-Nov-09 19:00N 40°41' W 074°09'0 0.0
2017-Nov-09 18:30N 40°41' W 074°09'0 0.1
2017-Nov-09 18:00N 40°41' W 074°09'0 0.2
2017-Nov-09 17:30N 40°41' W 074°09'0 0.2
2017-Nov-09 17:00N 40°41' W 074°09'0 0.0
2017-Nov-09 16:30N 40°41' W 074°09'0 0.0
2017-Nov-09 16:00N 40°41' W 074°09'0 0.0
2017-Nov-09 15:30N 40°41' W 074°09'0 0.0
2017-Nov-09 15:00N 40°41' W 074°09'0 0.0
2017-Nov-09 14:30N 40°41' W 074°09'0 0.1
2017-Nov-09 13:59N 40°41' W 074°09'0 0.1
2017-Nov-09 13:30N 40°41' W 074°09'0 0.0
2017-Nov-09 13:00N 40°41' W 074°09'0 0.0
2017-Nov-09 12:30N 40°41' W 074°09'0 0.0
2017-Nov-09 12:00N 40°41' W 074°09'0 0.0
2017-Nov-09 11:31N 40°41' W 074°09'0 0.5
2017-Nov-09 11:00N 40°41' W 074°08'1 2.3
2017-Nov-09 10:30N 40°42' W 074°09'0 0.0
2017-Nov-09 10:00N 40°42' W 074°09'0 0.0
2017-Nov-09 09:31N 40°42' W 074°09'0 0.0
2017-Nov-09 09:00N 40°42' W 074°09'0 0.0
2017-Nov-09 08:30N 40°42' W 074°09'0 0.0
2017-Nov-09 08:00N 40°42' W 074°09'0 0.0
2017-Nov-09 07:30N 40°42' W 074°09'0 0.0
2017-Nov-09 07:00N 40°42' W 074°09'0 0.0
2017-Nov-09 06:30N 40°42' W 074°09'0 0.0
2017-Nov-09 06:01N 40°42' W 074°09'0 0.0
2017-Nov-09 05:30N 40°42' W 074°09'0 0.0
2017-Nov-09 05:00N 40°42' W 074°09'0 0.0
2017-Nov-09 04:30N 40°42' W 074°09'0 0.0
2017-Nov-09 04:00N 40°42' W 074°09'0 0.0
2017-Nov-09 03:30N 40°42' W 074°09'0 0.0
2017-Nov-09 03:00N 40°42' W 074°09'0 0.0
2017-Nov-09 02:30N 40°42' W 074°09'0 0.0
2017-Nov-09 02:00N 40°42' W 074°09'0 0.0
2017-Nov-09 01:30N 40°42' W 074°09'0 0.0
2017-Nov-09 01:00N 40°42' W 074°09'0 0.0
2017-Nov-09 00:30N 40°42' W 074°09'0 0.0
2017-Nov-09 00:00N 40°42' W 074°09'0 0.0
2017-Nov-08 23:30N 40°42' W 074°09'0 0.0
2017-Nov-08 23:00N 40°42' W 074°09'1 2.3
2017-Nov-08 22:30N 40°41' W 074°08'0 0.5
2017-Nov-08 22:01N 40°41' W 074°09'0 0.0
2017-Nov-08 21:31N 40°41' W 074°09'0 0.0
2017-Nov-08 21:00N 40°41' W 074°09'0 0.0
2017-Nov-08 20:30N 40°41' W 074°09'0 0.0
2017-Nov-08 20:00N 40°41' W 074°09'0 0.1
2017-Nov-08 19:30N 40°41' W 074°09'0 0.0
2017-Nov-08 19:00N 40°41' W 074°09'0 0.0
2017-Nov-08 18:30N 40°41' W 074°09'0 0.0
2017-Nov-08 18:00N 40°41' W 074°09'1 1.4
2017-Nov-08 17:29N 40°42' W 074°08'0 0.6
2017-Nov-08 17:00N 40°41' W 074°08'1 1.2
2017-Nov-08 16:31N 40°41' W 074°09'0 0.0
2017-Nov-08 16:00N 40°41' W 074°09'0 0.0
2017-Nov-08 15:30N 40°41' W 074°09'0 0.0
2017-Nov-08 15:00N 40°41' W 074°09'0 0.0
2017-Nov-08 14:30N 40°41' W 074°09'0 0.0
2017-Nov-08 14:00N 40°41' W 074°09'0 0.1
2017-Nov-08 13:30N 40°41' W 074°09'0 0.0
2017-Nov-08 13:01N 40°41' W 074°09'0 0.0
2017-Nov-08 12:30N 40°41' W 074°09'0 0.0
2017-Nov-08 12:01N 40°41' W 074°09'0 0.0
2017-Nov-08 11:30N 40°41' W 074°09'0 0.1
2017-Nov-08 11:00N 40°41' W 074°09'1 2.1
2017-Nov-08 10:31N 40°42' W 074°09'0 0.1
2017-Nov-08 10:00N 40°42' W 074°09'0 0.4
2017-Nov-08 09:30N 40°42' W 074°09'0 0.0
2017-Nov-08 09:01N 40°42' W 074°09'0 0.0
2017-Nov-08 08:31N 40°42' W 074°09'0 0.0
2017-Nov-08 08:00N 40°42' W 074°09'0 0.0
2017-Nov-08 07:31N 40°42' W 074°09'0 0.0
2017-Nov-08 07:00N 40°42' W 074°09'0 0.0
2017-Nov-08 06:30N 40°42' W 074°09'0 0.0
2017-Nov-08 06:00N 40°42' W 074°09'0 0.0
2017-Nov-08 05:31N 40°42' W 074°09'0 0.0
2017-Nov-08 05:00N 40°42' W 074°09'0 0.0
2017-Nov-08 04:31N 40°42' W 074°09'0 0.0
2017-Nov-08 04:00N 40°42' W 074°09'0 0.0
2017-Nov-08 03:30N 40°42' W 074°09'0 0.0
2017-Nov-08 03:00N 40°42' W 074°09'0 0.0
2017-Nov-08 02:30N 40°42' W 074°09'0 0.0
2017-Nov-08 02:00N 40°42' W 074°09'0 0.0
2017-Nov-08 01:30N 40°42' W 074°09'0 0.0
2017-Nov-08 01:00N 40°42' W 074°09'0 0.0
2017-Nov-08 00:30N 40°42' W 074°09'0 0.0
2017-Nov-08 00:00N 40°42' W 074°09'0 0.0
2017-Nov-07 23:31N 40°42' W 074°09'0 0.0
2017-Nov-07 23:00N 40°42' W 074°09'0 0.0
2017-Nov-07 22:30N 40°42' W 074°09'0 0.0
2017-Nov-07 22:00N 40°42' W 074°09'0 0.0
2017-Nov-07 21:30N 40°42' W 074°09'0 0.0
2017-Nov-07 21:00N 40°42' W 074°09'0 0.1
2017-Nov-07 20:29N 40°42' W 074°09'3 5.6
2017-Nov-07 20:00N 40°39' W 074°09'3 5.5
2017-Nov-07 19:30N 40°39' W 074°05'2 4.6
2017-Nov-07 19:01N 40°41' W 074°03'1 1.5
2017-Nov-07 18:30N 40°40' W 074°03'3 5.9
2017-Nov-07 18:00N 40°39' W 074°07'2 3.4
2017-Nov-07 17:31N 40°40' W 074°09'2 2.2
2017-Nov-07 16:31N 40°42' W 074°09'0 2.3
2017-Nov-07 16:30N 40°42' W 074°09'0 0.0
2017-Nov-07 16:00N 40°42' W 074°09'0 0.0
2017-Nov-07 15:30N 40°42' W 074°09'0 0.3
2017-Nov-07 15:00N 40°42' W 074°09'0 0.3
2017-Nov-07 14:30N 40°42' W 074°09'0 0.0
2017-Nov-07 14:00N 40°42' W 074°09'0 0.0
2017-Nov-07 13:30N 40°42' W 074°09'0 0.0
2017-Nov-07 13:00N 40°42' W 074°09'0 0.0
2017-Nov-07 12:30N 40°42' W 074°09'0 0.0
2017-Nov-07 12:00N 40°42' W 074°09'0 0.0
2017-Nov-07 11:30N 40°42' W 074°09'0 0.0
2017-Nov-07 11:00N 40°42' W 074°09'0 0.0
2017-Nov-07 10:30N 40°42' W 074°09'0 0.0
2017-Nov-07 10:00N 40°42' W 074°09'0 0.0
2017-Nov-07 09:30N 40°42' W 074°09'0 0.0
2017-Nov-07 09:00N 40°42' W 074°09'0 0.0
2017-Nov-07 08:30N 40°42' W 074°09'0 0.0
2017-Nov-07 08:00N 40°42' W 074°09'0 0.0
2017-Nov-07 07:30N 40°42' W 074°09'0 0.0
2017-Nov-07 07:00N 40°42' W 074°09'0 0.0
2017-Nov-07 06:30N 40°42' W 074°09'0 0.0
2017-Nov-07 06:00N 40°42' W 074°09'0 0.0
2017-Nov-07 05:30N 40°42' W 074°09'0 0.0
2017-Nov-07 05:00N 40°42' W 074°09'0 0.0
2017-Nov-07 04:30N 40°42' W 074°09'0 0.0
2017-Nov-07 04:00N 40°42' W 074°09'0 0.0
2017-Nov-07 03:30N 40°42' W 074°09'0 0.0
2017-Nov-07 03:00N 40°42' W 074°09'0 0.0
2017-Nov-07 02:30N 40°42' W 074°09'0 0.0
2017-Nov-07 02:00N 40°42' W 074°09'0 0.0
2017-Nov-07 01:30N 40°42' W 074°09'0 0.0
2017-Nov-07 01:00N 40°42' W 074°09'0 0.0
2017-Nov-07 00:30N 40°42' W 074°09'0 0.0
2017-Nov-07 00:00N 40°42' W 074°09'0 0.0
2017-Nov-06 23:30N 40°42' W 074°09'0 0.0
2017-Nov-06 23:00N 40°42' W 074°09'0 0.0
2017-Nov-06 22:30N 40°42' W 074°09'0 0.0
2017-Nov-06 22:00N 40°42' W 074°09'0 0.0
2017-Nov-06 21:30N 40°42' W 074°09'0 0.3
2017-Nov-06 21:00N 40°42' W 074°09'0 0.0
2017-Nov-06 20:30N 40°42' W 074°09'0 0.0
2017-Nov-06 02:30N 40°42' W 074°09'0 0.0
2017-Nov-06 02:00N 40°42' W 074°09'0 0.0
2017-Nov-06 01:30N 40°42' W 074°09'0 0.0
2017-Nov-06 01:00N 40°42' W 074°09'0 0.0
2017-Nov-06 00:30N 40°42' W 074°09'0 0.0
2017-Nov-06 00:00N 40°42' W 074°09'0 0.0
2017-Nov-05 23:30N 40°42' W 074°09'0 0.0
2017-Nov-05 23:00N 40°42' W 074°09'0 0.0
2017-Nov-05 22:30N 40°42' W 074°09'0 0.0
2017-Nov-05 21:59N 40°42' W 074°09'0 0.0
2017-Nov-05 21:30N 40°42' W 074°09'0 0.0
2017-Nov-05 21:00N 40°42' W 074°09'0 0.0
2017-Nov-05 20:31N 40°42' W 074°09'0 0.1
2017-Nov-05 19:59N 40°42' W 074°09'0 0.0
2017-Nov-05 19:30N 40°42' W 074°09'0 0.0
2017-Nov-05 19:00N 40°42' W 074°09'0 0.0
2017-Nov-05 18:30N 40°42' W 074°09'0 0.0
2017-Nov-05 18:00N 40°42' W 074°09'0 0.0
2017-Nov-05 17:30N 40°42' W 074°09'0 0.0
2017-Nov-05 16:59N 40°42' W 074°09'0 0.0
2017-Nov-05 16:30N 40°42' W 074°09'  
Track history (hours):
 
Tides and Currents Weather Stations Pressure Air Temp Water Temp Dewpoint Dewpoint Depression Visibility Wind Speed Wind Dir Waves Ship Positions

William E.

Owner: Donjon Marine Co., Inc., Hillside, NJ. More information available from US FCC via Universal Licensing System and Coast Guard Vessel Documentation Center.

Last reported at 2017-Nov-15 16:15 UTC. Time now 2017-Nov-24 14:46 UTC.
Position N 41°10' W 072°44'.
Warning: this ship's position is 8 days out of date.

Type: Tug. MMSI: 367005710.

Date/timePositionNaut miles runAvg speedWind from/ knotsBaromVisibWave heightAir tempDewpointWater temp
2017-Nov-15 16:15N 41°10' W 072°44'2 8.4
2017-Nov-15 16:01N 41°11' W 072°42'4 8.5
2017-Nov-15 15:30N 41°12' W 072°36'4 8.5
2017-Nov-15 15:00N 41°13' W 072°31'4 7.8
2017-Nov-15 14:30N 41°14' W 072°26'3 5.4
2017-Nov-15 14:00N 41°15' W 072°22'1 0.1
2017-Nov-15 06:58N 41°15' W 072°22'0 0.0
2017-Nov-15 06:30N 41°15' W 072°22'0 0.0
2017-Nov-15 06:00N 41°15' W 072°22'0 0.0
2017-Nov-15 05:30N 41°15' W 072°22'0 0.0
2017-Nov-15 05:00N 41°15' W 072°22'0 0.0
2017-Nov-15 04:30N 41°15' W 072°22'0 0.0
2017-Nov-15 04:00N 41°15' W 072°22'0 0.0
2017-Nov-15 03:30N 41°15' W 072°22'0 0.0
2017-Nov-15 03:00N 41°15' W 072°22'0 0.0
2017-Nov-15 02:30N 41°15' W 072°22'0 0.0
2017-Nov-15 02:00N 41°15' W 072°22'0 0.0
2017-Nov-15 01:30N 41°15' W 072°22'0 0.0
2017-Nov-15 01:00N 41°15' W 072°22'0 0.0
2017-Nov-15 00:30N 41°15' W 072°22'0 0.0
2017-Nov-15 00:00N 41°15' W 072°22'0 0.0
2017-Nov-14 23:30N 41°15' W 072°22'0 0.0
2017-Nov-14 23:00N 41°15' W 072°22'0 0.0
2017-Nov-14 22:30N 41°15' W 072°22'0 0.0
2017-Nov-14 22:00N 41°15' W 072°22'0 0.0
2017-Nov-14 21:30N 41°15' W 072°22'0 0.0
2017-Nov-14 21:00N 41°15' W 072°22'0 0.0
2017-Nov-14 20:30N 41°15' W 072°22'0 0.0
2017-Nov-14 20:00N 41°15' W 072°22'0 0.0
2017-Nov-14 19:30N 41°15' W 072°22'0 0.0
2017-Nov-14 19:00N 41°15' W 072°22'0 0.0
2017-Nov-14 18:30N 41°15' W 072°22'0 0.1
2017-Nov-14 18:00N 41°15' W 072°22'0 0.1
2017-Nov-14 17:30N 41°15' W 072°22'0 0.0
2017-Nov-14 16:58N 41°15' W 072°22'0 0.0
2017-Nov-14 16:30N 41°15' W 072°22'0 0.1
2017-Nov-14 16:00N 41°15' W 072°22'0 0.0
2017-Nov-14 15:30N 41°15' W 072°22'0 0.0
2017-Nov-14 15:00N 41°15' W 072°22'0 0.0
2017-Nov-14 14:30N 41°15' W 072°22'0 0.0
2017-Nov-14 14:00N 41°15' W 072°22'0 0.0
2017-Nov-14 13:30N 41°15' W 072°22'0 0.0
2017-Nov-14 13:00N 41°15' W 072°22'0 0.0
2017-Nov-14 12:30N 41°15' W 072°22'0 0.0
2017-Nov-14 11:48N 41°15' W 072°22'0 0.0
2017-Nov-14 11:30N 41°15' W 072°22'0 0.0
2017-Nov-14 10:57N 41°15' W 072°22'0 0.0
2017-Nov-14 10:30N 41°15' W 072°22'0 0.0
2017-Nov-14 10:00N 41°15' W 072°22'0 0.0
2017-Nov-14 09:30N 41°15' W 072°22'0 0.0
2017-Nov-14 09:00N 41°15' W 072°22'0 0.0
2017-Nov-14 08:30N 41°15' W 072°22'0 0.0
2017-Nov-14 08:00N 41°15' W 072°22'0 0.0
2017-Nov-14 07:30N 41°15' W 072°22'0 0.0
2017-Nov-14 07:00N 41°15' W 072°22'0 0.0
2017-Nov-14 06:30N 41°15' W 072°22'0 0.0
2017-Nov-14 06:00N 41°15' W 072°22'0 0.0
2017-Nov-14 05:30N 41°15' W 072°22'0 0.0
2017-Nov-14 05:00N 41°15' W 072°22'0 0.0
2017-Nov-14 04:30N 41°15' W 072°22'0 0.0
2017-Nov-14 04:00N 41°15' W 072°22'0 0.0
2017-Nov-14 03:30N 41°15' W 072°22'0 0.0
2017-Nov-14 03:00N 41°15' W 072°22'0 0.0
2017-Nov-14 02:30N 41°15' W 072°22'0 0.0
2017-Nov-14 02:00N 41°15' W 072°22'0 0.0
2017-Nov-14 01:30N 41°15' W 072°22'0 0.0
2017-Nov-14 01:00N 41°15' W 072°22'0 0.0
2017-Nov-14 00:30N 41°15' W 072°22'0 0.0
2017-Nov-14 00:00N 41°15' W 072°22'0 0.0
2017-Nov-13 23:30N 41°15' W 072°22'0 0.0
2017-Nov-13 23:00N 41°15' W 072°22'0 0.0
2017-Nov-13 22:30N 41°15' W 072°22'0 0.0
2017-Nov-13 22:00N 41°15' W 072°22'68 2.4
2017-Nov-12 17:52N 40°50' W 073°46'3 6.0
2017-Nov-12 17:23N 40°48' W 073°48'3 6.8
2017-Nov-12 17:00N 40°48' W 073°51'3 5.8
2017-Nov-12 16:30N 40°47' W 073°55'3 5.9
2017-Nov-12 16:00N 40°45' W 073°58'3 5.3
2017-Nov-12 15:30N 40°43' W 073°58'2 4.6
2017-Nov-12 15:00N 40°41' W 074°01'2 4.6
2017-Nov-12 14:30N 40°40' W 074°03'3 5.0
2017-Nov-12 14:00N 40°39' W 074°06'2 4.3
2017-Nov-12 13:30N 40°39' W 074°09'2 4.1
2017-Nov-12 13:00N 40°41' W 074°08'0 0.0
2017-Nov-12 12:30N 40°41' W 074°08'0 0.5
2017-Nov-12 12:00N 40°42' W 074°08'1 1.2
2017-Nov-12 11:30N 40°42' W 074°09'0 0.0
2017-Nov-12 11:00N 40°42' W 074°09'0 0.0
2017-Nov-12 10:30N 40°42' W 074°09'0 0.0
2017-Nov-12 10:00N 40°42' W 074°09'0 0.0
2017-Nov-12 09:31N 40°42' W 074°09'0 0.0
2017-Nov-12 09:00N 40°42' W 074°09'0 0.0
2017-Nov-12 08:30N 40°42' W 074°09'0 0.0
2017-Nov-12 08:00N 40°42' W 074°09'0 0.0
2017-Nov-12 07:30N 40°42' W 074°09'0 0.0
2017-Nov-12 07:00N 40°42' W 074°09'0 0.0
2017-Nov-12 06:30N 40°42' W 074°09'0 0.0
2017-Nov-12 06:01N 40°42' W 074°09'0 0.0
2017-Nov-12 05:30N 40°42' W 074°09'0 0.0
2017-Nov-12 05:00N 40°42' W 074°09'0 0.0
2017-Nov-12 04:30N 40°42' W 074°09'0 0.0
2017-Nov-12 04:00N 40°42' W 074°09'0 0.0
2017-Nov-12 03:30N 40°42' W 074°09'0 0.0
2017-Nov-12 03:00N 40°42' W 074°09'0 0.0
2017-Nov-12 02:30N 40°42' W 074°09'0 0.0
2017-Nov-12 02:00N 40°42' W 074°09'0 0.0
2017-Nov-12 01:30N 40°42' W 074°09'0 0.0
2017-Nov-12 01:00N 40°42' W 074°09'0 0.0
2017-Nov-12 00:30N 40°42' W 074°09'0 0.0
2017-Nov-12 00:00N 40°42' W 074°09'0 0.0
2017-Nov-11 23:30N 40°42' W 074°09'0 0.0
2017-Nov-11 23:00N 40°42' W 074°09'0 0.0
2017-Nov-11 22:30N 40°42' W 074°09'0 0.0
2017-Nov-11 22:00N 40°42' W 074°09'0 0.0
2017-Nov-11 21:30N 40°42' W 074°09'0 0.0
2017-Nov-11 21:00N 40°42' W 074°09'0 0.0
2017-Nov-11 20:30N 40°42' W 074°09'0 0.0
2017-Nov-11 20:00N 40°42' W 074°09'0 0.0
2017-Nov-11 19:30N 40°42' W 074°09'0 0.0
2017-Nov-11 19:00N 40°42' W 074°09'1 2.4
2017-Nov-11 18:30N 40°41' W 074°09'0 0.1
2017-Nov-11 18:00N 40°41' W 074°09'0 0.0
2017-Nov-11 17:30N 40°41' W 074°09'0 0.0
2017-Nov-11 17:00N 40°41' W 074°09'0 0.0
2017-Nov-11 16:30N 40°41' W 074°09'0 0.0
2017-Nov-11 16:00N 40°41' W 074°09'0 0.0
2017-Nov-11 15:30N 40°41' W 074°09'0 0.0
2017-Nov-11 15:00N 40°41' W 074°09'0 0.0
2017-Nov-11 14:30N 40°41' W 074°09'0 0.0
2017-Nov-11 14:00N 40°41' W 074°09'0 0.0
2017-Nov-11 13:30N 40°41' W 074°09'0 0.1
2017-Nov-11 13:00N 40°41' W 074°09'1 1.7
2017-Nov-11 12:30N 40°42' W 074°08'1 1.1
2017-Nov-11 12:01N 40°42' W 074°09'0 0.0
2017-Nov-11 11:30N 40°42' W 074°09'0 0.0
2017-Nov-11 11:00N 40°42' W 074°09'0 0.0
2017-Nov-11 10:30N 40°42' W 074°09'0 0.0
2017-Nov-11 10:00N 40°42' W 074°09'0 0.0
2017-Nov-11 09:31N 40°42' W 074°09'0 0.0
2017-Nov-11 09:01N 40°42' W 074°09'0 0.0
2017-Nov-11 08:30N 40°42' W 074°09'0 0.0
2017-Nov-11 08:01N 40°42' W 074°09'0 0.0
2017-Nov-11 07:31N 40°42' W 074°09'0 0.0
2017-Nov-11 07:01N 40°42' W 074°09'0 0.0
2017-Nov-11 06:30N 40°42' W 074°09'0 0.0
2017-Nov-11 06:00N 40°42' W 074°09'0 0.0
2017-Nov-11 05:30N 40°42' W 074°09'0 0.0
2017-Nov-11 05:00N 40°42' W 074°09'0 0.0
2017-Nov-11 04:30N 40°42' W 074°09'0 0.0
2017-Nov-11 04:00N 40°42' W 074°09'0 0.0
2017-Nov-11 03:30N 40°42' W 074°09'0 0.0
2017-Nov-11 03:00N 40°42' W 074°09'0 0.0
2017-Nov-11 02:30N 40°42' W 074°09'0 0.0
2017-Nov-11 02:00N 40°42' W 074°09'0 0.0
2017-Nov-11 01:30N 40°42' W 074°09'0 0.0
2017-Nov-11 01:00N 40°42' W 074°09'0 0.0
2017-Nov-11 00:30N 40°42' W 074°09'0 0.0
2017-Nov-11 00:00N 40°42' W 074°09'0 0.0
2017-Nov-10 23:30N 40°42' W 074°09'0 0.0
2017-Nov-10 23:00N 40°42' W 074°09'0 0.0
2017-Nov-10 22:30N 40°42' W 074°09'0 0.0
2017-Nov-10 22:00N 40°42' W 074°09'0 0.0
2017-Nov-10 21:30N 40°42' W 074°09'0 0.0
2017-Nov-10 21:00N 40°42' W 074°09'1 1.8
2017-Nov-10 20:30N 40°41' W 074°08'0 0.1
2017-Nov-10 20:01N 40°41' W 074°08'1 1.9
2017-Nov-10 19:30N 40°42' W 074°09'1 1.2
2017-Nov-10 19:00N 40°42' W 074°08'1 1.7
2017-Nov-10 18:30N 40°41' W 074°09'0 0.0
2017-Nov-10 18:00N 40°41' W 074°09'0 0.0
2017-Nov-10 17:30N 40°41' W 074°09'0 0.1
2017-Nov-10 17:00N 40°41' W 074°09'0 0.2
2017-Nov-10 16:30N 40°41' W 074°09'0 0.1
2017-Nov-10 16:01N 40°41' W 074°09'0 0.0
2017-Nov-10 15:31N 40°41' W 074°09'0 0.0
2017-Nov-10 15:01N 40°41' W 074°09'0 0.0
2017-Nov-10 14:31N 40°41' W 074°09'0 0.0
2017-Nov-10 14:01N 40°41' W 074°09'0 0.1
2017-Nov-10 13:31N 40°41' W 074°09'0 0.1
2017-Nov-10 13:00N 40°41' W 074°09'0 0.0
2017-Nov-10 12:30N 40°41' W 074°09'0 0.0
2017-Nov-10 12:00N 40°41' W 074°09'0 0.0
2017-Nov-10 11:30N 40°41' W 074°09'0 0.0
2017-Nov-10 11:01N 40°41' W 074°09'1 2.4
2017-Nov-10 10:30N 40°42' W 074°09'0 0.0
2017-Nov-10 10:00N 40°42' W 074°09'0 0.0
2017-Nov-10 09:31N 40°42' W 074°09'0 0.0
2017-Nov-10 09:00N 40°42' W 074°09'0 0.0
2017-Nov-10 08:30N 40°42' W 074°09'0 0.0
2017-Nov-10 08:00N 40°42' W 074°09'0 0.0
2017-Nov-10 07:30N 40°42' W 074°09'0 0.0
2017-Nov-10 07:00N 40°42' W 074°09'0 0.0
2017-Nov-10 06:30N 40°42' W 074°09'0 0.0
2017-Nov-10 06:00N 40°42' W 074°09'0 0.0
2017-Nov-10 05:30N 40°42' W 074°09'0 0.0
2017-Nov-10 05:00N 40°42' W 074°09'0 0.0
2017-Nov-10 04:30N 40°42' W 074°09'0 0.0
2017-Nov-10 04:00N 40°42' W 074°09'0 0.0
2017-Nov-10 03:31N 40°42' W 074°09'0 0.0
2017-Nov-10 03:01N 40°42' W 074°09'0 0.0
2017-Nov-10 02:31N 40°42' W 074°09'0 0.0
2017-Nov-10 02:00N 40°42' W 074°09'0 0.0
2017-Nov-10 01:30N 40°42' W 074°09'0 0.0
2017-Nov-10 01:00N 40°42' W 074°09'0 0.0
2017-Nov-10 00:30N 40°42' W 074°09'0 0.0
2017-Nov-10 00:00N 40°42' W 074°09'0 0.0
2017-Nov-09 23:31N 40°42' W 074°09'0 0.0
2017-Nov-09 23:00N 40°42' W 074°09'0 0.0
2017-Nov-09 22:30N 40°42' W 074°09'0 1.0
2017-Nov-09 22:01N 40°42' W 074°09'1 1.9
2017-Nov-09 21:31N 40°41' W 074°09'0 0.2
2017-Nov-09 21:00N 40°41' W 074°09'0 0.0
2017-Nov-09 20:30N 40°41' W 074°09'0 0.3
2017-Nov-09 20:00N 40°41' W 074°09'0 0.2
2017-Nov-09 19:30N 40°41' W 074°09'0 0.0
2017-Nov-09 19:00N 40°41' W 074°09'0 0.0
2017-Nov-09 18:30N 40°41' W 074°09'0 0.1
2017-Nov-09 18:00N 40°41' W 074°09'0 0.2
2017-Nov-09 17:30N 40°41' W 074°09'0 0.2
2017-Nov-09 17:00N 40°41' W 074°09'0 0.0
2017-Nov-09 16:30N 40°41' W 074°09'0 0.0
2017-Nov-09 16:00N 40°41' W 074°09'0 0.0
2017-Nov-09 15:30N 40°41' W 074°09'0 0.0
2017-Nov-09 15:00N 40°41' W 074°09'0 0.0
2017-Nov-09 14:30N 40°41' W 074°09'0 0.1
2017-Nov-09 13:59N 40°41' W 074°09'0 0.1
2017-Nov-09 13:30N 40°41' W 074°09'0 0.0
2017-Nov-09 13:00N 40°41' W 074°09'0 0.0
2017-Nov-09 12:30N 40°41' W 074°09'0 0.0
2017-Nov-09 12:00N 40°41' W 074°09'0 0.0
2017-Nov-09 11:31N 40°41' W 074°09'0 0.5
2017-Nov-09 11:00N 40°41' W 074°08'1 2.3
2017-Nov-09 10:30N 40°42' W 074°09'0 0.0
2017-Nov-09 10:00N 40°42' W 074°09'0 0.0
2017-Nov-09 09:31N 40°42' W 074°09'0 0.0
2017-Nov-09 09:00N 40°42' W 074°09'0 0.0
2017-Nov-09 08:30N 40°42' W 074°09'0 0.0
2017-Nov-09 08:00N 40°42' W 074°09'0 0.0
2017-Nov-09 07:30N 40°42' W 074°09'0 0.0
2017-Nov-09 07:00N 40°42' W 074°09'0 0.0
2017-Nov-09 06:30N 40°42' W 074°09'0 0.0
2017-Nov-09 06:01N 40°42' W 074°09'0 0.0
2017-Nov-09 05:30N 40°42' W 074°09'0 0.0
2017-Nov-09 05:00N 40°42' W 074°09'0 0.0
2017-Nov-09 04:30N 40°42' W 074°09'0 0.0
2017-Nov-09 04:00N 40°42' W 074°09'0 0.0
2017-Nov-09 03:30N 40°42' W 074°09'0 0.0
2017-Nov-09 03:00N 40°42' W 074°09'0 0.0
2017-Nov-09 02:30N 40°42' W 074°09'0 0.0
2017-Nov-09 02:00N 40°42' W 074°09'0 0.0
2017-Nov-09 01:30N 40°42' W 074°09'0 0.0
2017-Nov-09 01:00N 40°42' W 074°09'0 0.0
2017-Nov-09 00:30N 40°42' W 074°09'0 0.0
2017-Nov-09 00:00N 40°42' W 074°09'0 0.0
2017-Nov-08 23:30N 40°42' W 074°09'0 0.0
2017-Nov-08 23:00N 40°42' W 074°09'1 2.3
2017-Nov-08 22:30N 40°41' W 074°08'0 0.5
2017-Nov-08 22:01N 40°41' W 074°09'0 0.0
2017-Nov-08 21:31N 40°41' W 074°09'0 0.0
2017-Nov-08 21:00N 40°41' W 074°09'0 0.0
2017-Nov-08 20:30N 40°41' W 074°09'0 0.0
2017-Nov-08 20:00N 40°41' W 074°09'0 0.1
2017-Nov-08 19:30N 40°41' W 074°09'0 0.0
2017-Nov-08 19:00N 40°41' W 074°09'0 0.0
2017-Nov-08 18:30N 40°41' W 074°09'0 0.0
2017-Nov-08 18:00N 40°41' W 074°09'1 1.4
2017-Nov-08 17:29N 40°42' W 074°08'0 0.6
2017-Nov-08 17:00N 40°41' W 074°08'1 1.2
2017-Nov-08 16:31N 40°41' W 074°09'0 0.0
2017-Nov-08 16:00N 40°41' W 074°09'0 0.0
2017-Nov-08 15:30N 40°41' W 074°09'0 0.0
2017-Nov-08 15:00N 40°41' W 074°09'0 0.0
2017-Nov-08 14:30N 40°41' W 074°09'0 0.0
2017-Nov-08 14:00N 40°41' W 074°09'0 0.1
2017-Nov-08 13:30N 40°41' W 074°09'0 0.0
2017-Nov-08 13:01N 40°41' W 074°09'0 0.0
2017-Nov-08 12:30N 40°41' W 074°09'0 0.0
2017-Nov-08 12:01N 40°41' W 074°09'0 0.0
2017-Nov-08 11:30N 40°41' W 074°09'0 0.1
2017-Nov-08 11:00N 40°41' W 074°09'1 2.1
2017-Nov-08 10:31N 40°42' W 074°09'0 0.1
2017-Nov-08 10:00N 40°42' W 074°09'0 0.4
2017-Nov-08 09:30N 40°42' W 074°09'0 0.0
2017-Nov-08 09:01N 40°42' W 074°09'0 0.0
2017-Nov-08 08:31N 40°42' W 074°09'0 0.0
2017-Nov-08 08:00N 40°42' W 074°09'0 0.0
2017-Nov-08 07:31N 40°42' W 074°09'0 0.0
2017-Nov-08 07:00N 40°42' W 074°09'0 0.0
2017-Nov-08 06:30N 40°42' W 074°09'0 0.0
2017-Nov-08 06:00N 40°42' W 074°09'0 0.0
2017-Nov-08 05:31N 40°42' W 074°09'0 0.0
2017-Nov-08 05:00N 40°42' W 074°09'0 0.0
2017-Nov-08 04:31N 40°42' W 074°09'0 0.0
2017-Nov-08 04:00N 40°42' W 074°09'0 0.0
2017-Nov-08 03:30N 40°42' W 074°09'0 0.0
2017-Nov-08 03:00N 40°42' W 074°09'0 0.0
2017-Nov-08 02:30N 40°42' W 074°09'0 0.0
2017-Nov-08 02:00N 40°42' W 074°09'0 0.0
2017-Nov-08 01:30N 40°42' W 074°09'0 0.0
2017-Nov-08 01:00N 40°42' W 074°09'0 0.0
2017-Nov-08 00:30N 40°42' W 074°09'0 0.0
2017-Nov-08 00:00N 40°42' W 074°09'0 0.0
2017-Nov-07 23:31N 40°42' W 074°09'0 0.0
2017-Nov-07 23:00N 40°42' W 074°09'0 0.0
2017-Nov-07 22:30N 40°42' W 074°09'0 0.0
2017-Nov-07 22:00N 40°42' W 074°09'0 0.0
2017-Nov-07 21:30N 40°42' W 074°09'0 0.0
2017-Nov-07 21:00N 40°42' W 074°09'0 0.1
2017-Nov-07 20:29N 40°42' W 074°09'3 5.6
2017-Nov-07 20:00N 40°39' W 074°09'3 5.5
2017-Nov-07 19:30N 40°39' W 074°05'2 4.6
2017-Nov-07 19:01N 40°41' W 074°03'1 1.5
2017-Nov-07 18:30N 40°40' W 074°03'3 5.9
2017-Nov-07 18:00N 40°39' W 074°07'2 3.4
2017-Nov-07 17:31N 40°40' W 074°09'2 2.2
2017-Nov-07 16:31N 40°42' W 074°09'0 2.3
2017-Nov-07 16:30N 40°42' W 074°09'0 0.0
2017-Nov-07 16:00N 40°42' W 074°09'0 0.0
2017-Nov-07 15:30N 40°42' W 074°09'0 0.3
2017-Nov-07 15:00N 40°42' W 074°09'0 0.3
2017-Nov-07 14:30N 40°42' W 074°09'0 0.0
2017-Nov-07 14:00N 40°42' W 074°09'0 0.0
2017-Nov-07 13:30N 40°42' W 074°09'0 0.0
2017-Nov-07 13:00N 40°42' W 074°09'0 0.0
2017-Nov-07 12:30N 40°42' W 074°09'0 0.0
2017-Nov-07 12:00N 40°42' W 074°09'0 0.0
2017-Nov-07 11:30N 40°42' W 074°09'0 0.0
2017-Nov-07 11:00N 40°42' W 074°09'0 0.0
2017-Nov-07 10:30N 40°42' W 074°09'0 0.0
2017-Nov-07 10:00N 40°42' W 074°09'0 0.0
2017-Nov-07 09:30N 40°42' W 074°09'0 0.0
2017-Nov-07 09:00N 40°42' W 074°09'0 0.0
2017-Nov-07 08:30N 40°42' W 074°09'0 0.0
2017-Nov-07 08:00N 40°42' W 074°09'0 0.0
2017-Nov-07 07:30N 40°42' W 074°09'0 0.0
2017-Nov-07 07:00N 40°42' W 074°09'0 0.0
2017-Nov-07 06:30N 40°42' W 074°09'0 0.0
2017-Nov-07 06:00N 40°42' W 074°09'0 0.0
2017-Nov-07 05:30N 40°42' W 074°09'0 0.0
2017-Nov-07 05:00N 40°42' W 074°09'0 0.0
2017-Nov-07 04:30N 40°42' W 074°09'0 0.0
2017-Nov-07 04:00N 40°42' W 074°09'0 0.0
2017-Nov-07 03:30N 40°42' W 074°09'0 0.0
2017-Nov-07 03:00N 40°42' W 074°09'0 0.0
2017-Nov-07 02:30N 40°42' W 074°09'0 0.0
2017-Nov-07 02:00N 40°42' W 074°09'0 0.0
2017-Nov-07 01:30N 40°42' W 074°09'0 0.0
2017-Nov-07 01:00N 40°42' W 074°09'0 0.0
2017-Nov-07 00:30N 40°42' W 074°09'0 0.0
2017-Nov-07 00:00N 40°42' W 074°09'0 0.0
2017-Nov-06 23:30N 40°42' W 074°09'0 0.0
2017-Nov-06 23:00N 40°42' W 074°09'0 0.0
2017-Nov-06 22:30N 40°42' W 074°09'0 0.0
2017-Nov-06 22:00N 40°42' W 074°09'0 0.0
2017-Nov-06 21:30N 40°42' W 074°09'0 0.3
2017-Nov-06 21:00N 40°42' W 074°09'0 0.0
2017-Nov-06 20:30N 40°42' W 074°09'0 0.0
2017-Nov-06 02:30N 40°42' W 074°09'0 0.0
2017-Nov-06 02:00N 40°42' W 074°09'0 0.0
2017-Nov-06 01:30N 40°42' W 074°09'0 0.0
2017-Nov-06 01:00N 40°42' W 074°09'0 0.0
2017-Nov-06 00:30N 40°42' W 074°09'0 0.0
2017-Nov-06 00:00N 40°42' W 074°09'0 0.0
2017-Nov-05 23:30N 40°42' W 074°09'0 0.0
2017-Nov-05 23:00N 40°42' W 074°09'0 0.0
2017-Nov-05 22:30N 40°42' W 074°09'0 0.0
2017-Nov-05 21:59N 40°42' W 074°09'0 0.0
2017-Nov-05 21:30N 40°42' W 074°09'0 0.0
2017-Nov-05 21:00N 40°42' W 074°09'0 0.0
2017-Nov-05 20:31N 40°42' W 074°09'0 0.1
2017-Nov-05 19:59N 40°42' W 074°09'0 0.0
2017-Nov-05 19:30N 40°42' W 074°09'0 0.0
2017-Nov-05 19:00N 40°42' W 074°09'0 0.0
2017-Nov-05 18:30N 40°42' W 074°09'0 0.0
2017-Nov-05 18:00N 40°42' W 074°09'0 0.0
2017-Nov-05 17:30N 40°42' W 074°09'0 0.0
2017-Nov-05 16:59N 40°42' W 074°09'0 0.0
2017-Nov-05 16:30N 40°42' W 074°09'  

Dump ship's entire track history